createdAt,value
2022-11-15T00:01:17.830Z,6.93
2022-11-15T00:03:47.841Z,8.07
2022-11-15T00:06:17.461Z,8.77
2022-11-15T00:08:45.745Z,7.90
2022-11-15T00:11:14.212Z,10.27
2022-11-15T00:13:42.498Z,8.45
2022-11-15T00:16:11.326Z,7.35
2022-11-15T00:18:39.855Z,7.53
2022-11-15T00:21:09.645Z,7.00
2022-11-15T00:23:39.268Z,8.55
2022-11-15T00:26:07.618Z,8.02
2022-11-15T00:28:35.903Z,8.77
2022-11-15T00:31:04.585Z,7.78
2022-11-15T00:33:33.387Z,6.53
2022-11-15T00:36:03.198Z,6.50
2022-11-15T00:38:33.840Z,7.97
2022-11-15T00:41:08.910Z,5.60
2022-11-15T00:43:37.839Z,6.72
2022-11-15T00:46:06.322Z,8.00
2022-11-15T00:48:34.615Z,6.72
2022-11-15T00:51:02.898Z,6.53
2022-11-15T00:53:31.535Z,8.70
2022-11-15T00:56:00.049Z,7.43
2022-11-15T00:58:29.714Z,6.55
2022-11-15T01:00:58.035Z,6.47
2022-11-15T01:03:26.361Z,6.03
2022-11-15T01:05:54.620Z,6.22
2022-11-15T01:08:22.907Z,4.28
2022-11-15T01:10:51.180Z,5.97
2022-11-15T01:13:19.445Z,5.90
2022-11-15T01:15:49.079Z,5.90
2022-11-15T01:18:17.339Z,7.75
2022-11-15T01:20:45.592Z,6.03
2022-11-15T01:23:13.868Z,7.18
2022-11-15T01:25:42.130Z,7.72
2022-11-15T01:28:10.383Z,6.85
2022-11-15T01:30:38.802Z,6.68
2022-11-15T01:33:08.440Z,5.30
2022-11-15T01:35:40.561Z,5.68
2022-11-15T01:38:08.978Z,5.95
2022-11-15T01:40:37.254Z,6.07
2022-11-15T01:43:23.560Z,5.05
2022-11-15T01:45:53.473Z,6.00
2022-11-15T01:48:23.167Z,6.00
2022-11-15T01:50:51.978Z,6.25
2022-11-15T01:53:20.689Z,5.72
2022-11-15T01:55:48.977Z,6.32
2022-11-15T01:58:17.248Z,8.40
2022-11-15T02:00:45.594Z,5.60
2022-11-15T02:03:13.911Z,6.05
2022-11-15T02:05:43.608Z,7.35
2022-11-15T02:08:20.650Z,6.30
2022-11-15T02:13:17.103Z,9.73
2022-11-15T02:15:49.217Z,8.07
2022-11-15T02:18:20.214Z,6.28
2022-11-15T02:21:02.779Z,6.78
2022-11-15T02:24:10.536Z,7.15
2022-11-15T02:27:23.477Z,7.15
2022-11-15T02:30:02.993Z,6.25
2022-11-15T02:32:34.828Z,5.95
2022-11-15T02:35:04.906Z,6.90
2022-11-15T02:37:37.104Z,7.75
2022-11-15T02:40:15.041Z,10.68
2022-11-15T02:43:08.197Z,7.47
2022-11-15T02:45:39.085Z,6.03
2022-11-15T02:48:08.731Z,5.85
2022-11-15T02:50:37.017Z,6.90
2022-11-15T02:53:05.731Z,7.18
2022-11-15T02:55:34.948Z,6.53
2022-11-15T02:58:16.924Z,6.57
2022-11-15T03:00:47.774Z,6.55
2022-11-15T03:03:32.960Z,5.20
2022-11-15T03:06:06.055Z,6.13
2022-11-15T03:08:37.380Z,6.40
2022-11-15T03:11:09.182Z,5.50
2022-11-15T03:13:39.822Z,7.15
2022-11-15T03:16:10.376Z,5.75
2022-11-15T03:18:41.070Z,6.93
2022-11-15T03:21:10.382Z,5.78
2022-11-15T03:23:40.474Z,5.55
2022-11-15T03:26:10.162Z,5.85
2022-11-15T03:28:39.129Z,6.18
2022-11-15T03:31:28.177Z,5.50
2022-11-15T03:33:57.801Z,6.40
2022-11-15T03:36:27.364Z,7.47
2022-11-15T03:38:56.105Z,5.97
2022-11-15T03:41:25.652Z,4.95
2022-11-15T03:43:55.161Z,5.65
2022-11-15T03:46:28.239Z,6.20
2022-11-15T03:49:01.670Z,5.47
2022-11-15T03:51:30.880Z,8.52
2022-11-15T03:53:59.167Z,7.32
2022-11-15T03:56:27.442Z,7.10
2022-11-15T03:58:55.721Z,6.45
2022-11-15T04:01:24.057Z,4.78
2022-11-15T04:03:52.398Z,6.78
2022-11-15T04:06:22.036Z,4.82
2022-11-15T04:08:50.311Z,4.70
2022-11-15T04:11:18.595Z,5.15
2022-11-15T04:13:46.877Z,6.95
2022-11-15T04:16:15.158Z,6.32
2022-11-15T04:18:43.451Z,5.30
2022-11-15T04:21:29.261Z,5.65
2022-11-15T04:24:16.853Z,4.97
2022-11-15T04:26:45.141Z,4.88
2022-11-15T04:29:36.308Z,4.07
2022-11-15T04:32:04.837Z,4.53
2022-11-15T04:34:33.165Z,4.72
2022-11-15T04:37:18.236Z,4.93
2022-11-15T04:39:47.868Z,4.60
2022-11-15T04:42:16.141Z,5.43
2022-11-15T04:44:44.418Z,5.45
2022-11-15T04:47:15.266Z,4.15
2022-11-15T04:49:44.952Z,4.45
2022-11-15T04:52:13.229Z,4.10
2022-11-15T04:54:42.994Z,3.10
2022-11-15T04:57:12.670Z,4.43
2022-11-15T04:59:40.945Z,4.43
2022-11-15T05:02:09.245Z,3.75
2022-11-15T05:04:36.551Z,3.85
2022-11-15T05:07:06.078Z,4.78
2022-11-15T05:09:34.366Z,5.18
2022-11-15T05:12:05.255Z,3.80
2022-11-15T05:14:34.894Z,3.40
2022-11-15T05:17:03.155Z,3.63
2022-11-15T05:19:31.802Z,4.45
2022-11-15T05:22:00.094Z,4.38
2022-11-15T05:24:28.372Z,2.97
2022-11-15T05:26:56.637Z,4.10
2022-11-15T05:29:24.950Z,4.18
2022-11-15T05:31:54.580Z,4.97
2022-11-15T05:34:23.731Z,3.10
2022-11-15T05:36:51.978Z,3.72
2022-11-15T05:39:20.257Z,3.28
2022-11-15T05:41:50.835Z,3.30
2022-11-15T05:44:20.048Z,3.20
2022-11-15T05:46:48.318Z,3.08
2022-11-15T05:49:19.314Z,3.25
2022-11-15T05:51:47.721Z,3.60
2022-11-15T05:54:16.007Z,3.70
2022-11-15T05:56:44.296Z,4.90
2022-11-15T05:59:12.600Z,2.47
2022-11-15T06:01:40.965Z,2.97
2022-11-15T06:04:10.818Z,4.00
2022-11-15T06:06:40.440Z,2.53
2022-11-15T06:09:08.726Z,3.45
2022-11-15T06:11:37.011Z,3.45
2022-11-15T06:14:05.451Z,3.17
2022-11-15T06:16:33.725Z,2.67
2022-11-15T06:19:02.008Z,2.42
2022-11-15T06:21:30.395Z,2.65
2022-11-15T06:24:00.077Z,2.45
2022-11-15T06:26:28.420Z,2.80
2022-11-15T06:28:56.736Z,3.10
2022-11-15T06:31:25.017Z,2.67
2022-11-15T06:33:53.329Z,2.72
2022-11-15T06:36:21.738Z,2.67
2022-11-15T06:38:50.050Z,3.08
2022-11-15T06:41:19.704Z,2.88
2022-11-15T06:43:50.422Z,2.90
2022-11-15T06:46:18.695Z,2.65
2022-11-15T06:48:47.854Z,2.75
2022-11-15T06:51:16.136Z,3.20
2022-11-15T06:53:44.400Z,2.85
2022-11-15T06:56:12.674Z,6.18
2022-11-15T06:58:42.274Z,3.97
2022-11-15T07:01:11.682Z,2.92
2022-11-15T07:03:43.358Z,5.13
2022-11-15T07:06:11.756Z,2.22
2022-11-15T07:08:40.054Z,3.03
2022-11-15T07:11:08.829Z,2.72
2022-11-15T07:13:38.180Z,5.40
2022-11-15T07:16:08.890Z,2.80
2022-11-15T07:18:37.340Z,2.22
2022-11-15T07:21:07.489Z,2.22
2022-11-15T07:23:37.632Z,2.58
2022-11-15T07:26:06.164Z,3.70
2022-11-15T07:28:34.423Z,5.53
2022-11-15T07:31:04.435Z,5.20
2022-11-15T07:33:34.509Z,6.95
2022-11-15T07:36:03.527Z,7.28
2022-11-15T07:38:32.061Z,8.32
2022-11-15T07:41:02.363Z,8.95
2022-11-15T07:43:31.559Z,7.90
2022-11-15T07:46:00.088Z,6.82
2022-11-15T07:48:42.230Z,7.78
2022-11-15T07:51:15.242Z,10.38
2022-11-15T07:53:43.976Z,11.50
2022-11-15T07:56:12.641Z,9.70
2022-11-15T07:58:41.199Z,8.90
2022-11-15T08:01:10.344Z,7.57
2022-11-15T08:03:39.003Z,11.43
2022-11-15T08:06:07.841Z,9.23
2022-11-15T08:08:39.297Z,11.98
2022-11-15T08:11:10.941Z,5.72
2022-11-15T08:13:42.285Z,9.27
2022-11-15T08:16:13.829Z,12.57
2022-11-15T08:18:43.624Z,8.75
2022-11-15T08:21:18.182Z,10.30
2022-11-15T08:23:51.052Z,10.25
2022-11-15T08:26:22.668Z,15.68
2022-11-15T08:28:53.936Z,10.50
2022-11-15T08:31:25.253Z,14.15
2022-11-15T08:33:54.982Z,18.13
2022-11-15T08:36:26.281Z,10.65
2022-11-15T08:38:58.929Z,11.73
2022-11-15T08:41:31.509Z,12.43
2022-11-15T08:44:01.256Z,17.67
2022-11-15T08:46:30.774Z,9.55
2022-11-15T08:49:00.485Z,12.80
2022-11-15T08:51:30.288Z,15.65
2022-11-15T08:54:02.999Z,11.48
2022-11-15T08:56:32.720Z,9.70
2022-11-15T08:59:04.611Z,10.70
2022-11-15T09:01:34.505Z,10.57
2022-11-15T09:04:04.828Z,16.38
2022-11-15T09:06:34.595Z,10.20
2022-11-15T09:09:05.909Z,9.48
2022-11-15T09:11:35.640Z,17.25
2022-11-15T09:14:05.350Z,8.98
2022-11-15T09:16:35.329Z,14.85
2022-11-15T09:19:11.366Z,9.20
2022-11-15T09:21:41.572Z,12.43
2022-11-15T09:24:12.801Z,9.48
2022-11-15T09:26:42.473Z,10.60
2022-11-15T09:29:12.944Z,7.80
2022-11-15T09:31:42.763Z,9.65
2022-11-15T09:34:12.439Z,6.07
2022-11-15T09:36:42.170Z,8.45
2022-11-15T09:39:13.233Z,9.15
2022-11-15T09:42:02.355Z,9.18
2022-11-15T09:44:42.246Z,7.07
2022-11-15T09:47:14.417Z,8.23
2022-11-15T09:49:44.133Z,9.13
2022-11-15T09:52:14.120Z,4.80
2022-11-15T09:54:56.424Z,6.07
2022-11-15T09:57:28.728Z,6.30
2022-11-15T10:03:04.798Z,6.18
2022-11-15T10:05:34.524Z,8.20
2022-11-15T10:08:07.522Z,4.63
2022-11-15T10:10:40.557Z,4.55
2022-11-15T10:13:10.616Z,5.40
2022-11-15T10:15:40.345Z,8.23
2022-11-15T10:18:11.572Z,4.95
2022-11-15T10:20:46.538Z,4.32
2022-11-15T10:23:17.582Z,4.43
2022-11-15T10:25:48.653Z,5.28
2022-11-15T10:28:19.255Z,4.28
2022-11-15T10:30:48.747Z,6.07
2022-11-15T10:33:29.044Z,3.60
2022-11-15T10:36:25.637Z,4.85
2022-11-15T10:38:58.398Z,3.58
2022-11-15T10:41:40.062Z,4.55
2022-11-15T10:44:18.902Z,5.63
2022-11-15T10:46:49.589Z,5.07
2022-11-15T10:49:18.951Z,2.95
2022-11-15T10:51:48.741Z,5.10
2022-11-15T10:54:24.641Z,4.30
2022-11-15T10:56:55.211Z,4.80
2022-11-15T10:59:26.158Z,3.58
2022-11-15T11:01:54.491Z,3.35
2022-11-15T11:04:22.757Z,3.78
2022-11-15T11:06:52.377Z,3.30
2022-11-15T11:09:26.098Z,3.38
2022-11-15T11:11:55.725Z,3.50
2022-11-15T11:14:26.713Z,5.25
2022-11-15T11:16:57.414Z,3.00
2022-11-15T11:19:46.571Z,2.88
2022-11-15T11:22:18.392Z,4.43
2022-11-15T11:24:47.824Z,3.38
2022-11-15T11:27:21.536Z,4.13
2022-11-15T11:30:05.344Z,2.45
2022-11-15T11:32:37.375Z,3.00
2022-11-15T11:35:10.605Z,3.10
2022-11-15T11:37:40.445Z,1.85
2022-11-15T11:40:14.535Z,3.90
2022-11-15T11:42:45.550Z,1.95
2022-11-15T11:45:18.422Z,2.92
2022-11-15T11:47:49.792Z,3.80
2022-11-15T11:50:20.753Z,1.05
2022-11-15T11:52:52.974Z,2.65
2022-11-15T11:55:23.112Z,3.03
2022-11-15T11:57:54.300Z,2.92
2022-11-15T12:00:23.753Z,2.97
2022-11-15T12:02:55.454Z,3.38
2022-11-15T12:05:28.318Z,1.60
2022-11-15T12:08:03.158Z,6.28
2022-11-15T12:10:32.738Z,2.10
2022-11-15T12:13:03.613Z,2.08
2022-11-15T12:15:33.968Z,2.88
2022-11-15T12:18:02.577Z,1.95
2022-11-15T12:20:34.938Z,3.13
2022-11-15T12:23:05.772Z,2.03
2022-11-15T12:25:38.220Z,2.38
2022-11-15T12:28:09.461Z,2.92
2022-11-15T12:30:43.278Z,2.53
2022-11-15T12:33:31.758Z,2.38
2022-11-15T12:36:01.346Z,1.33
2022-11-15T12:38:55.472Z,3.60
2022-11-15T12:41:24.711Z,1.23
2022-11-15T12:43:57.549Z,1.90
2022-11-15T12:46:55.203Z,1.77
2022-11-15T12:49:45.710Z,1.55
2022-11-15T12:52:13.988Z,6.88
2022-11-15T12:55:01.572Z,3.58
2022-11-15T13:00:02.944Z,1.77
2022-11-15T13:02:32.112Z,1.50
2022-11-15T13:05:35.981Z,2.10
2022-11-15T13:08:04.720Z,1.33
2022-11-15T13:10:34.095Z,1.65
2022-11-15T13:13:02.913Z,2.55
2022-11-15T13:15:55.281Z,1.15
2022-11-15T13:18:37.900Z,3.35
2022-11-15T13:21:33.285Z,0.80
2022-11-15T13:24:02.239Z,1.45
2022-11-15T13:26:30.521Z,0.93
2022-11-15T13:29:00.401Z,1.65
2022-11-15T13:31:39.622Z,4.30
2022-11-15T13:34:51.172Z,1.55
2022-11-15T13:37:31.095Z,1.38
2022-11-15T13:40:12.391Z,1.92
2022-11-15T13:42:45.659Z,2.35
2022-11-15T13:45:15.922Z,1.17
2022-11-15T13:47:45.443Z,1.35
2022-11-15T13:50:13.985Z,1.60
2022-11-15T13:52:46.332Z,2.17
2022-11-15T13:55:15.538Z,1.17
2022-11-15T13:57:45.348Z,1.27
2022-11-15T14:00:28.543Z,1.40
2022-11-15T14:02:58.265Z,1.02
2022-11-15T14:05:31.166Z,0.82
2022-11-15T14:08:04.986Z,1.98
2022-11-15T14:10:37.259Z,1.42
2022-11-15T14:13:06.336Z,0.90
2022-11-15T14:15:36.956Z,0.57
2022-11-15T14:18:09.470Z,0.50
2022-11-15T14:20:40.931Z,0.75
2022-11-15T14:23:21.517Z,1.13
2022-11-15T14:25:54.407Z,1.63
2022-11-15T14:28:32.019Z,1.75
2022-11-15T14:31:06.673Z,2.05
2022-11-15T14:33:37.647Z,1.38
2022-11-15T14:36:12.424Z,1.35
2022-11-15T14:38:40.750Z,2.00
2022-11-15T14:41:11.884Z,1.10
2022-11-15T14:43:40.071Z,2.65
2022-11-15T14:46:10.141Z,2.45
2022-11-15T14:48:39.756Z,1.00
2022-11-15T14:51:15.691Z,0.80
2022-11-15T14:53:47.591Z,2.90
2022-11-15T14:56:18.745Z,2.75
2022-11-15T14:58:52.475Z,2.65
2022-11-15T15:01:22.715Z,4.30
2022-11-15T15:03:54.995Z,0.95
2022-11-15T15:06:26.063Z,1.65
2022-11-15T15:08:54.811Z,0.82
2022-11-15T15:11:23.752Z,2.08
2022-11-15T15:13:51.921Z,2.10
2022-11-15T15:16:20.200Z,0.88
2022-11-15T15:18:48.606Z,0.73
2022-11-15T15:21:22.077Z,2.38
2022-11-15T15:23:50.475Z,1.10
2022-11-15T15:26:18.815Z,1.85
2022-11-15T15:28:48.645Z,2.17
2022-11-15T15:31:16.962Z,1.13
2022-11-15T15:33:46.406Z,0.40
2022-11-15T15:36:23.531Z,0.88
2022-11-15T15:41:22.138Z,3.97
2022-11-15T15:43:50.583Z,5.65
2022-11-15T15:46:21.919Z,2.50
2022-11-15T15:48:50.465Z,1.20
2022-11-15T15:51:23.239Z,3.00
2022-11-15T15:53:53.590Z,1.83
2022-11-15T15:56:21.991Z,3.45
2022-11-15T15:58:50.433Z,2.50
2022-11-15T16:01:18.780Z,1.00
2022-11-15T16:03:47.101Z,6.32
2022-11-15T16:06:38.142Z,1.85
2022-11-15T16:09:16.201Z,3.45
2022-11-15T16:11:46.323Z,2.47
2022-11-15T16:14:14.607Z,1.88
2022-11-15T16:16:42.993Z,0.80
2022-11-15T16:19:14.249Z,1.73
2022-11-15T16:21:43.889Z,1.65
2022-11-15T16:24:12.191Z,1.75
2022-11-15T16:26:40.489Z,5.60
2022-11-15T16:29:10.211Z,3.95
2022-11-15T16:31:38.664Z,1.45
2022-11-15T16:34:07.230Z,2.05
2022-11-15T16:36:35.916Z,3.03
2022-11-15T16:39:05.852Z,1.17
2022-11-15T16:41:34.161Z,2.40
2022-11-15T16:44:02.444Z,1.33
2022-11-15T16:46:30.810Z,2.90
2022-11-15T16:48:59.231Z,0.88
2022-11-15T16:51:27.604Z,2.90
2022-11-15T16:53:55.887Z,2.22
2022-11-15T16:56:26.585Z,0.75
2022-11-15T16:58:55.656Z,1.00
2022-11-15T17:01:25.109Z,3.05
2022-11-15T17:03:53.508Z,0.95
2022-11-15T17:06:21.915Z,1.10
2022-11-15T17:08:51.368Z,2.20
2022-11-15T17:11:20.457Z,1.33
2022-11-15T17:13:50.140Z,0.77
2022-11-15T17:16:19.140Z,1.45
2022-11-15T17:18:51.626Z,1.50
2022-11-15T17:21:22.019Z,1.63
2022-11-15T17:23:50.316Z,1.17
2022-11-15T17:26:29.625Z,0.98
2022-11-15T17:29:01.357Z,1.00
2022-11-15T17:31:31.096Z,0.63
2022-11-15T17:33:59.396Z,1.15
2022-11-15T17:36:27.667Z,3.47
2022-11-15T17:38:59.484Z,0.82
2022-11-15T17:41:28.516Z,1.52
2022-11-15T17:43:57.834Z,0.68
2022-11-15T17:46:27.728Z,1.38
2022-11-15T17:48:56.285Z,1.13
2022-11-15T17:51:24.870Z,1.40
2022-11-15T17:53:53.303Z,1.20
2022-11-15T17:56:22.366Z,1.30
2022-11-15T17:58:51.005Z,2.60
2022-11-15T18:01:21.536Z,0.70
2022-11-15T18:03:51.249Z,2.65
2022-11-15T18:06:20.065Z,2.40
2022-11-15T18:08:49.090Z,1.48
2022-11-15T18:11:20.815Z,1.42
2022-11-15T18:13:52.344Z,3.83
2022-11-15T18:16:21.557Z,2.80
2022-11-15T18:18:51.195Z,0.75
2022-11-15T18:21:21.512Z,0.95
2022-11-15T18:23:50.124Z,1.27
2022-11-15T18:26:20.947Z,0.95
2022-11-15T18:28:51.369Z,0.75
2022-11-15T18:31:20.961Z,1.17
2022-11-15T18:33:51.035Z,1.23
2022-11-15T18:36:20.272Z,1.27
2022-11-15T18:38:48.709Z,2.03
2022-11-15T18:41:20.478Z,0.90
2022-11-15T18:43:50.210Z,1.08
2022-11-15T18:46:20.052Z,1.20
2022-11-15T18:48:50.381Z,0.80
2022-11-15T18:51:20.908Z,0.95
2022-11-15T18:53:49.380Z,1.70
2022-11-15T18:56:18.351Z,1.27
2022-11-15T18:58:47.681Z,1.20
2022-11-15T19:01:16.724Z,1.35
2022-11-15T19:03:46.167Z,2.25
2022-11-15T19:06:15.537Z,2.40
2022-11-15T19:08:46.098Z,1.50
2022-11-15T19:11:15.165Z,1.95
2022-11-15T19:13:43.808Z,1.40
2022-11-15T19:16:13.594Z,1.20
2022-11-15T19:18:42.020Z,1.02
2022-11-15T19:21:14.822Z,0.57
2022-11-15T19:23:45.546Z,1.48
2022-11-15T19:26:15.395Z,0.73
2022-11-15T19:28:43.964Z,0.80
2022-11-15T19:31:13.184Z,0.95
2022-11-15T19:33:41.930Z,0.65
2022-11-15T19:36:12.136Z,1.42
2022-11-15T19:38:40.529Z,1.10
2022-11-15T19:41:12.264Z,2.05
2022-11-15T19:43:40.548Z,0.55
2022-11-15T19:46:10.304Z,1.00
2022-11-15T19:48:38.602Z,0.80
2022-11-15T19:51:08.237Z,2.05
2022-11-15T19:53:36.822Z,1.95
2022-11-15T19:56:07.158Z,0.90
2022-11-15T19:58:36.785Z,0.90
2022-11-15T20:01:06.163Z,0.70
2022-11-15T20:03:35.440Z,1.00
2022-11-15T20:06:04.349Z,0.93
2022-11-15T20:08:33.033Z,1.35
2022-11-15T20:11:09.132Z,2.05
2022-11-15T20:13:38.853Z,0.70
2022-11-15T20:16:07.649Z,0.70
2022-11-15T20:18:36.476Z,1.23
2022-11-15T20:21:06.294Z,0.90
2022-11-15T20:23:37.332Z,0.80
2022-11-15T20:26:07.909Z,0.68
2022-11-15T20:28:38.750Z,13.60
2022-11-15T20:31:07.176Z,0.88
2022-11-15T20:33:37.562Z,0.60
2022-11-15T20:36:06.547Z,0.70
2022-11-15T20:38:37.944Z,0.82
2022-11-15T20:41:06.542Z,1.27
2022-11-15T20:43:34.872Z,0.68
2022-11-15T20:46:04.625Z,0.63
2022-11-15T20:48:36.621Z,1.42
2022-11-15T20:51:09.132Z,0.98
2022-11-15T20:53:40.488Z,0.50
2022-11-15T20:56:10.624Z,0.75
2022-11-15T20:58:38.999Z,0.70
2022-11-15T21:01:09.430Z,1.25
2022-11-15T21:03:37.780Z,0.80
2022-11-15T21:06:06.560Z,2.67
2022-11-15T21:08:48.741Z,2.55
2022-11-15T21:11:34.345Z,1.48
2022-11-15T21:14:07.776Z,2.80
2022-11-15T21:16:39.159Z,0.57
2022-11-15T21:19:10.685Z,1.25
2022-11-15T21:21:44.792Z,2.50
2022-11-15T21:24:13.154Z,0.60
2022-11-15T21:26:41.486Z,0.35
2022-11-15T21:29:10.695Z,0.85
2022-11-15T21:31:41.203Z,0.85
2022-11-15T21:34:16.467Z,0.68
2022-11-15T21:36:47.093Z,1.25
2022-11-15T21:39:18.453Z,1.00
2022-11-15T21:41:49.445Z,0.50
2022-11-15T21:44:17.781Z,2.13
2022-11-15T21:46:47.416Z,4.15
2022-11-15T21:49:15.708Z,0.40
2022-11-15T21:51:44.012Z,0.57
2022-11-15T21:54:12.274Z,0.65
2022-11-15T21:56:41.699Z,0.43
2022-11-15T21:59:09.992Z,1.40
2022-11-15T22:01:56.147Z,0.70
2022-11-15T22:04:26.034Z,0.77
2022-11-15T22:06:54.381Z,0.40
2022-11-15T22:09:22.639Z,0.40
2022-11-15T22:11:50.928Z,0.30
2022-11-15T22:14:19.295Z,0.57
2022-11-15T22:16:47.610Z,0.40
2022-11-15T22:19:18.769Z,1.15
2022-11-15T22:21:51.172Z,0.65
2022-11-15T22:24:19.615Z,0.77
2022-11-15T22:26:47.895Z,1.70
2022-11-15T22:29:16.201Z,0.73
2022-11-15T22:31:44.533Z,0.75
2022-11-15T22:34:12.824Z,3.10
2022-11-15T22:37:13.073Z,4.85
2022-11-15T22:39:34.816Z,5.43
2022-11-15T22:42:03.119Z,2.13
2022-11-15T22:44:31.377Z,0.80
2022-11-15T22:46:59.682Z,0.98
2022-11-15T22:49:28.465Z,0.85
2022-11-15T22:51:56.840Z,1.65
2022-11-15T22:54:25.123Z,1.88
2022-11-15T22:56:54.757Z,1.90
2022-11-15T22:59:23.084Z,2.53
2022-11-15T23:01:51.747Z,0.80
2022-11-15T23:04:20.064Z,2.70
2022-11-15T23:06:50.179Z,2.88
2022-11-15T23:09:18.496Z,0.70
2022-11-15T23:12:04.454Z,3.00
2022-11-15T23:14:34.092Z,5.22
2022-11-15T23:17:02.378Z,1.90
2022-11-15T23:19:30.855Z,1.92
2022-11-15T23:22:16.686Z,10.75
2022-11-15T23:24:44.965Z,1.15
2022-11-15T23:27:19.689Z,2.67
2022-11-15T23:30:07.624Z,1.30
2022-11-15T23:32:53.709Z,1.40
2022-11-15T23:35:23.693Z,0.90
2022-11-15T23:37:51.986Z,1.48
2022-11-15T23:40:23.019Z,0.90
2022-11-15T23:42:51.307Z,0.63
2022-11-15T23:45:20.937Z,3.67
2022-11-15T23:48:01.627Z,2.30
2022-11-15T23:50:30.102Z,1.25
2022-11-15T23:52:58.375Z,0.47
2022-11-15T23:55:26.662Z,1.00
2022-11-15T23:57:54.952Z,2.03
